Time;durP1;ratioP1;P1;durP2;ratioP2;P2;SDS_P1;SDS_P2;PMS_P1;PMS_P2;Temp;Humidity;BMP_temperature;BMP_pressure;BME280_temperature;BME280_humidity;BME280_pressure;Samples;Min_cycle;Max_cycle;Signal;HPM_P1;HPM_P2
2022/05/26 00:00:46;;;;;;;2.37;2.10;;;17.70;99.90;;;;;;6299981;28;20465;-62
2022/05/26 00:03:49;;;;;;;3.00;2.23;;;17.70;99.90;;;;;;6299955;28;20808;-62
2022/05/26 00:06:53;;;;;;;5.30;2.63;;;17.60;99.90;;;;;;6300031;28;20906;-62
2022/05/26 00:09:57;;;;;;;2.57;2.30;;;17.50;99.90;;;;;;6299811;28;20473;-62
2022/05/26 00:13:00;;;;;;;4.97;2.37;;;17.50;99.90;;;;;;6299720;28;20485;-63
2022/05/26 00:16:04;;;;;;;3.47;2.20;;;17.40;99.90;;;;;;6299484;28;20469;-62
2022/05/26 00:19:08;;;;;;;3.47;2.17;;;17.30;99.90;;;;;;6299491;28;20480;-62
2022/05/26 00:22:11;;;;;;;3.60;2.20;;;17.20;99.90;;;;;;6299847;28;20476;-62
2022/05/26 00:25:15;;;;;;;3.90;2.33;;;17.10;99.90;;;;;;6299712;28;20480;-63
2022/05/26 00:28:19;;;;;;;3.90;2.27;;;17.10;99.90;;;;;;6299305;28;20938;-63
2022/05/26 00:31:22;;;;;;;3.90;2.07;;;17.00;99.90;;;;;;6299462;28;20480;-63
2022/05/26 00:34:25;;;;;;;3.13;2.43;;;16.90;99.90;;;;;;6299013;28;20781;-63
2022/05/26 00:37:29;;;;;;;6.20;2.40;;;16.80;99.90;;;;;;6299228;28;20789;-63
2022/05/26 00:40:33;;;;;;;6.07;3.07;;;16.80;99.90;;;;;;6299467;28;20571;-63
2022/05/26 00:43:42;;;;;;;2.13;1.93;;;16.80;99.90;;;;;;6299308;28;20812;-63
2022/05/26 00:46:51;;;;;;;2.87;2.00;;;16.80;99.90;;;;;;6304011;28;20469;-63
2022/05/26 00:49:58;;;;;;;5.43;2.10;;;16.70;99.90;;;;;;6304593;28;20675;-63
2022/05/26 00:53:12;;;;;;;5.47;2.00;;;16.60;99.90;;;;;;6303927;28;20482;-63
2022/05/26 00:56:20;;;;;;;3.83;1.93;;;16.50;99.90;;;;;;6304376;28;20476;-63
2022/05/26 00:59:31;;;;;;;1.80;1.37;;;16.40;99.90;;;;;;6304635;28;20472;-63
2022/05/26 01:02:37;;;;;;;2.83;1.80;;;16.30;99.90;;;;;;6303986;28;20810;-63
2022/05/26 01:05:49;;;;;;;2.77;1.40;;;16.30;99.90;;;;;;6303741;28;20465;-63
2022/05/26 01:08:55;;;;;;;2.90;1.40;;;16.20;99.90;;;;;;6303325;28;20488;-63
2022/05/26 01:12:00;;;;;;;4.50;1.37;;;16.20;99.90;;;;;;6303721;28;20572;-63
2022/05/26 01:15:06;;;;;;;3.20;1.97;;;16.10;99.90;;;;;;6303967;28;20471;-63
2022/05/26 01:18:17;;;;;;;1.70;1.50;;;16.10;99.90;;;;;;6303832;28;20879;-63
2022/05/26 01:21:27;;;;;;;2.93;1.60;;;16.00;99.90;;;;;;6303784;28;20422;-63
2022/05/26 01:24:50;;;;;;;3.20;1.20;;;16.00;99.90;;;;;;6303843;28;20461;-63
2022/05/26 01:28:09;;;;;;;2.70;1.23;;;16.00;99.90;;;;;;6303671;28;20470;-63
2022/05/26 01:31:36;;;;;;;1.20;0.90;;;16.00;99.90;;;;;;6303522;28;20469;-63
2022/05/26 01:34:46;;;;;;;2.40;1.00;;;15.90;99.90;;;;;;6303141;28;20473;-63
2022/05/26 01:38:14;;;;;;;1.10;0.90;;;15.90;99.90;;;;;;6303533;28;20469;-63
2022/05/26 01:41:29;;;;;;;3.87;1.30;;;15.80;99.90;;;;;;6303088;28;20480;-63
2022/05/26 01:44:41;;;;;;;1.47;1.37;;;15.80;99.90;;;;;;6302956;28;20481;-63
2022/05/26 01:47:51;;;;;;;2.50;1.47;;;15.80;99.90;;;;;;6302950;28;20548;-63
2022/05/26 01:50:58;;;;;;;3.20;1.30;;;15.70;99.90;;;;;;6302796;28;20477;-63
2022/05/26 01:54:09;;;;;;;1.77;1.23;;;15.80;99.90;;;;;;6303065;28;20485;-63
2022/05/26 01:57:20;;;;;;;3.97;1.43;;;15.70;99.90;;;;;;6302319;28;20448;-63
2022/05/26 02:00:23;;;;;;;2.93;1.17;;;15.70;99.90;;;;;;6302537;28;20719;-63
2022/05/26 02:03:32;;;;;;;2.53;1.50;;;15.70;99.90;;;;;;6302737;28;20457;-63
2022/05/26 02:06:39;;;;;;;1.83;1.00;;;15.70;99.90;;;;;;6303225;28;20465;-63
2022/05/26 02:09:44;;;;;;;2.50;1.10;;;15.70;99.90;;;;;;6302413;28;20481;-63
2022/05/26 02:12:50;;;;;;;1.47;1.37;;;15.70;99.90;;;;;;6302268;28;20561;-63
2022/05/26 02:15:57;;;;;;;6.33;1.60;;;15.80;99.90;;;;;;6302466;28;20462;-63
2022/05/26 02:19:09;;;;;;;2.60;1.23;;;15.80;99.90;;;;;;6302119;28;20548;-63
2022/05/26 02:22:19;;;;;;;1.83;1.40;;;15.80;99.90;;;;;;6302585;28;20465;-63
2022/05/26 02:25:25;;;;;;;2.20;1.20;;;15.80;99.90;;;;;;6302141;28;20485;-63
2022/05/26 02:29:50;;;;;;;1.10;1.00;;;15.80;99.90;;;;;;6301972;28;20473;-63
2022/05/26 02:31:54;;;;;;;8.43;1.87;;;15.80;99.90;;;;;;6302024;28;20958;-63
2022/05/26 02:35:01;;;;;;;1.13;1.03;;;15.80;99.90;;;;;;6302220;28;20473;-63
2022/05/26 02:38:09;;;;;;;1.73;1.37;;;15.80;99.90;;;;;;6302092;28;20470;-63
2022/05/26 02:41:12;;;;;;;2.10;1.20;;;15.80;99.90;;;;;;6287832;28;20473;-63
2022/05/26 02:44:16;;;;;;;1.80;1.10;;;15.80;99.90;;;;;;6301328;28;20485;-63
2022/05/26 02:47:41;;;;;;;3.70;1.17;;;15.80;99.90;;;;;;6301923;28;20465;-63
2022/05/26 02:50:55;;;;;;;2.70;1.47;;;15.80;99.90;;;;;;6301875;28;20477;-63
2022/05/26 02:54:11;;;;;;;1.00;0.90;;;15.70;99.90;;;;;;6301821;28;20482;-63
2022/05/26 02:57:24;;;;;;;0.93;0.77;;;15.80;99.90;;;;;;6301796;28;20474;-63
2022/05/26 03:00:31;;;;;;;3.63;1.13;;;15.70;99.90;;;;;;6301523;28;20449;-63
2022/05/26 03:03:42;;;;;;;3.03;1.17;;;15.70;99.90;;;;;;6301640;28;20449;-61
2022/05/26 03:06:51;;;;;;;1.73;1.20;;;15.60;99.90;;;;;;6301481;28;20465;-61
2022/05/26 03:09:55;;;;;;;2.00;1.13;;;15.50;99.90;;;;;;6300966;28;20477;-62
2022/05/26 03:13:00;;;;;;;2.43;1.50;;;15.50;99.90;;;;;;6301048;28;20479;-62
2022/05/26 03:16:04;;;;;;;1.33;1.13;;;15.50;99.90;;;;;;6301158;28;20946;-62
2022/05/26 03:19:07;;;;;;;3.13;1.17;;;15.60;99.90;;;;;;6300999;28;20483;-62
2022/05/26 03:22:12;;;;;;;1.93;1.20;;;15.60;99.90;;;;;;6300639;28;20477;-61
2022/05/26 03:25:15;;;;;;;1.60;1.37;;;15.60;99.90;;;;;;6300879;28;20470;-62
2022/05/26 03:28:19;;;;;;;4.10;1.67;;;15.60;99.90;;;;;;6300601;28;20564;-61
2022/05/26 03:31:22;;;;;;;2.10;1.13;;;15.60;99.90;;;;;;6300581;28;20482;-62
2022/05/26 03:41:08;;;;;;;1.17;1.07;;;15.60;99.90;;;;;;6300657;28;20476;-62
2022/05/26 03:44:11;;;;;;;1.37;1.27;;;15.70;99.90;;;;;;6300124;28;20802;-62
2022/05/26 03:47:14;;;;;;;3.30;1.40;;;15.70;99.90;;;;;;6300086;28;20563;-62
2022/05/26 03:50:18;;;;;;;2.57;1.37;;;15.80;99.90;;;;;;6300490;28;20473;-62
2022/05/26 03:53:23;;;;;;;3.93;1.47;;;15.80;99.90;;;;;;6300062;28;20985;-62
2022/05/26 03:56:26;;;;;;;2.30;1.40;;;15.90;99.90;;;;;;6300236;28;20878;-62
2022/05/26 03:59:29;;;;;;;3.07;1.00;;;16.00;99.90;;;;;;6300236;28;20461;-62
2022/05/26 04:02:36;;;;;;;1.60;1.37;;;16.00;99.90;;;;;;6299740;28;20958;-62
2022/05/26 04:05:39;;;;;;;2.83;1.10;;;16.00;99.90;;;;;;6299916;28;20973;-62
2022/05/26 04:08:43;;;;;;;1.60;1.50;;;16.00;99.90;;;;;;6299744;28;20476;-62
2022/05/26 04:11:46;;;;;;;2.40;1.20;;;16.00;99.90;;;;;;6299911;28;20477;-62
2022/05/26 04:14:49;;;;;;;3.23;1.70;;;16.00;99.90;;;;;;6300643;28;20473;-62
2022/05/26 04:17:53;;;;;;;2.13;1.30;;;16.00;99.90;;;;;;6299923;28;20469;-61
2022/05/26 04:21:04;;;;;;;2.83;1.60;;;16.10;99.90;;;;;;6299411;28;20465;-63
2022/05/26 04:24:08;;;;;;;1.20;1.10;;;16.30;99.90;;;;;;6299496;28;20469;-62
2022/05/26 04:27:12;;;;;;;2.60;1.30;;;16.30;99.90;;;;;;6299999;28;20922;-63
2022/05/26 04:30:15;;;;;;;1.90;1.33;;;16.30;99.90;;;;;;6299972;28;20579;-63
2022/05/26 04:33:18;;;;;;;4.40;1.87;;;16.40;99.90;;;;;;6299472;28;20781;-62
2022/05/26 04:36:22;;;;;;;2.60;1.60;;;16.30;99.90;;;;;;6299835;28;20445;-62
2022/05/26 04:39:27;;;;;;;3.10;1.50;;;16.40;99.90;;;;;;6300912;28;20468;-63
2022/05/26 04:42:30;;;;;;;3.63;1.93;;;16.40;99.90;;;;;;6295546;28;20457;-63
2022/05/26 04:45:33;;;;;;;2.30;1.70;;;16.50;99.90;;;;;;6299457;28;20469;-63
2022/05/26 04:48:37;;;;;;;2.20;1.83;;;16.50;99.90;;;;;;6299542;28;20472;-62
2022/05/26 04:51:40;;;;;;;3.90;2.30;;;16.50;99.90;;;;;;6298978;28;20476;-62
2022/05/26 04:54:45;;;;;;;2.67;1.37;;;16.50;99.90;;;;;;6299350;28;20474;-62
2022/05/26 04:57:52;;;;;;;1.83;1.20;;;16.50;99.90;;;;;;6299258;28;20534;-62
2022/05/26 05:00:55;;;;;;;2.13;1.70;;;16.60;99.90;;;;;;6299265;28;20978;-62
2022/05/26 05:04:00;;;;;;;3.33;2.07;;;16.50;99.90;;;;;;6299096;28;20993;-62
2022/05/26 05:07:03;;;;;;;2.27;1.90;;;16.50;99.90;;;;;;6291657;28;20478;-62
2022/05/26 05:10:09;;;;;;;2.70;1.90;;;16.40;99.90;;;;;;6274485;28;20485;-62
2022/05/26 05:13:13;;;;;;;5.50;2.10;;;16.50;99.90;;;;;;6274263;28;20947;-62
2022/05/26 05:16:21;;;;;;;3.30;1.80;;;16.40;99.90;;;;;;6274132;28;20466;-62
2022/05/26 05:19:24;;;;;;;2.80;1.67;;;16.50;99.90;;;;;;6274393;28;20476;-62
2022/05/26 05:22:30;;;;;;;4.83;1.93;;;16.40;99.90;;;;;;6274332;28;20565;-62
2022/05/26 05:25:39;;;;;;;2.43;2.07;;;16.40;99.90;;;;;;6274472;28;20803;-63
2022/05/26 05:28:46;;;;;;;3.70;2.23;;;16.50;99.90;;;;;;6274091;28;20462;-62
2022/05/26 05:31:55;;;;;;;5.13;1.80;;;16.50;99.90;;;;;;6275513;28;20492;-62
2022/05/26 05:35:02;;;;;;;5.83;2.07;;;16.60;99.90;;;;;;6278961;28;20479;-62
2022/05/26 05:38:06;;;;;;;2.07;1.87;;;16.70;99.90;;;;;;6278554;28;20967;-62
2022/05/26 05:41:11;;;;;;;3.33;2.60;;;16.80;99.90;;;;;;6278402;28;20476;-62
2022/05/26 05:44:14;;;;;;;3.80;2.00;;;16.90;99.90;;;;;;6277614;28;20482;-62
2022/05/26 05:47:18;;;;;;;2.40;2.10;;;16.90;99.90;;;;;;6277947;28;20803;-62
2022/05/26 05:50:21;;;;;;;2.40;1.77;;;16.90;99.90;;;;;;6278139;28;20560;-63
2022/05/26 05:53:25;;;;;;;3.20;2.03;;;17.00;99.90;;;;;;6277888;28;20454;-62
2022/05/26 05:56:30;;;;;;;5.13;2.37;;;17.10;99.90;;;;;;6277824;28;20489;-62
2022/05/26 05:59:33;;;;;;;4.60;2.53;;;17.30;99.90;;;;;;6278369;28;20939;-63
2022/05/26 06:02:36;;;;;;;4.20;2.10;;;17.20;99.90;;;;;;6277763;28;20485;-62
2022/05/26 06:05:40;;;;;;;4.63;2.40;;;17.10;99.90;;;;;;6278096;28;20466;-62
2022/05/26 06:08:44;;;;;;;3.80;2.27;;;17.30;99.90;;;;;;6278038;28;20794;-62
2022/05/26 06:11:49;;;;;;;4.83;2.63;;;17.30;99.90;;;;;;6277674;28;20489;-62
2022/05/26 06:14:52;;;;;;;4.43;2.57;;;17.40;99.90;;;;;;6277861;28;20466;-63
2022/05/26 06:17:57;;;;;;;2.50;2.30;;;17.50;99.90;;;;;;6277743;28;20470;-63
2022/05/26 06:21:04;;;;;;;5.30;2.20;;;17.60;99.90;;;;;;6277659;28;20466;-63
2022/05/26 06:24:09;;;;;;;4.80;2.83;;;17.60;99.90;;;;;;6277653;28;20496;-63
2022/05/26 06:30:36;;;;;;;2.63;2.30;;;17.70;99.90;;;;;;6278108;28;20467;-63
2022/05/26 06:37:15;;;;;;;3.73;2.17;;;17.90;99.90;;;;;;6237333;28;20466;-63
2022/05/26 06:40:19;;;;;;;4.63;2.23;;;18.00;99.90;;;;;;6277087;28;20948;-63
2022/05/26 06:43:24;;;;;;;2.63;2.40;;;18.20;99.90;;;;;;6276714;28;20482;-63
2022/05/26 06:46:27;;;;;;;3.90;2.50;;;18.20;99.90;;;;;;6276767;28;20971;-63
2022/05/26 06:49:32;;;;;;;2.97;2.37;;;18.30;99.90;;;;;;6277485;28;20480;-64
2022/05/26 06:52:36;;;;;;;3.57;2.97;;;18.30;99.90;;;;;;6276731;28;20470;-63
2022/05/26 06:55:39;;;;;;;4.43;2.80;;;18.30;99.90;;;;;;6276943;28;20476;-63
2022/05/26 06:58:43;;;;;;;3.73;2.80;;;18.40;99.90;;;;;;6277186;28;20466;-63
2022/05/26 07:01:49;;;;;;;3.63;2.60;;;18.40;99.90;;;;;;6276607;28;20475;-63
2022/05/26 07:04:52;;;;;;;5.10;3.10;;;18.50;99.90;;;;;;6277167;28;20238;-63
2022/05/26 07:07:57;;;;;;;3.70;2.60;;;18.50;99.90;;;;;;6276719;28;20470;-63
2022/05/26 07:11:01;;;;;;;5.80;2.93;;;18.50;99.90;;;;;;6276832;28;20994;-63
2022/05/26 07:14:07;;;;;;;3.63;2.40;;;18.50;99.90;;;;;;6276013;28;20742;-61
2022/05/26 07:17:10;;;;;;;6.43;2.93;;;18.70;99.90;;;;;;6276643;28;20481;-61
2022/05/26 07:20:13;;;;;;;5.93;3.23;;;18.90;99.90;;;;;;6276099;28;20227;-64
2022/05/26 07:23:17;;;;;;;4.10;3.00;;;19.00;99.90;;;;;;6275998;28;20485;-63
2022/05/26 07:26:21;;;;;;;6.47;2.87;;;19.40;99.90;;;;;;6276292;28;20553;-63
2022/05/26 07:29:25;;;;;;;4.80;3.07;;;19.90;99.90;;;;;;6276411;28;20236;-63
2022/05/26 07:32:28;;;;;;;5.67;2.87;;;20.30;99.90;;;;;;6275786;28;20232;-64
2022/05/26 07:35:31;;;;;;;3.53;2.80;;;20.50;99.90;;;;;;6275951;28;20253;-64
2022/05/26 07:42:00;;;;;;;3.20;3.00;;;20.80;99.20;;;;;;6275912;28;20247;-64
2022/05/26 07:45:08;;;;;;;5.57;3.00;;;20.80;99.00;;;;;;6275185;28;20265;-63
2022/05/26 07:48:11;;;;;;;4.50;3.00;;;20.60;98.90;;;;;;6275479;28;20235;-63
2022/05/26 07:51:15;;;;;;;3.73;3.30;;;20.40;99.00;;;;;;6275656;28;20208;-64
2022/05/26 07:54:18;;;;;;;5.93;3.53;;;20.30;99.30;;;;;;6265654;28;20626;-63
2022/05/26 07:57:23;;;;;;;6.13;3.10;;;20.20;99.20;;;;;;6275328;28;20214;-63
2022/05/26 08:00:28;;;;;;;3.70;3.10;;;20.10;99.30;;;;;;6275582;28;20235;-63
2022/05/26 08:03:32;;;;;;;8.20;4.00;;;20.00;99.60;;;;;;6275080;28;20232;-63
2022/05/26 08:06:36;;;;;;;3.60;3.13;;;20.00;99.70;;;;;;6274926;28;20286;-63
2022/05/26 08:09:40;;;;;;;4.60;3.00;;;19.90;98.90;;;;;;6275377;28;20230;-63
2022/05/26 08:12:44;;;;;;;3.47;3.17;;;19.90;99.10;;;;;;6275872;28;20231;-62
2022/05/26 08:15:49;;;;;;;4.80;3.27;;;20.00;99.00;;;;;;6275240;28;20227;-62
2022/05/26 08:18:53;;;;;;;3.97;3.57;;;20.30;98.90;;;;;;6274928;28;20365;-62
2022/05/26 08:21:56;;;;;;;3.87;3.43;;;20.40;98.40;;;;;;6275476;28;20228;-63
2022/05/26 08:25:00;;;;;;;3.50;3.20;;;20.40;98.20;;;;;;6275574;28;20230;-63
2022/05/26 08:28:04;;;;;;;6.13;3.30;;;20.40;98.40;;;;;;6275960;28;20556;-62
2022/05/26 08:31:10;;;;;;;3.53;2.70;;;20.50;98.80;;;;;;6275234;28;20223;-63
2022/05/26 08:34:13;;;;;;;6.17;2.90;;;20.60;98.80;;;;;;6274923;28;20223;-63
2022/05/26 08:37:18;;;;;;;5.83;3.20;;;20.90;98.50;;;;;;6274842;28;20219;-61
2022/05/26 08:40:33;;;;;;;4.27;3.30;;;21.20;97.70;;;;;;6275315;28;20223;-63
2022/05/26 08:43:42;;;;;;;4.20;3.80;;;22.00;97.20;;;;;;6274777;28;20327;-62
2022/05/26 08:46:51;;;;;;;4.40;3.97;;;22.30;95.90;;;;;;6276167;28;20232;-63
2022/05/26 08:49:58;;;;;;;5.83;3.30;;;22.90;94.70;;;;;;6277248;28;20310;-62
2022/05/26 08:53:04;;;;;;;6.10;3.83;;;23.40;94.30;;;;;;6278113;28;20242;-63
2022/05/26 08:56:11;;;;;;;4.57;3.67;;;23.90;93.10;;;;;;6278325;28;20323;-62
2022/05/26 08:59:16;;;;;;;5.17;3.70;;;24.30;92.20;;;;;;6273496;28;20236;-62
2022/05/26 09:02:25;;;;;;;5.17;3.90;;;24.70;91.40;;;;;;6279139;28;20289;-63
2022/05/26 09:05:32;;;;;;;5.53;4.10;;;24.80;90.40;;;;;;6277126;28;20316;-62
2022/05/26 09:15:20;;;;;;;5.03;4.27;;;25.00;87.90;;;;;;6279942;28;20212;-65
2022/05/26 09:18:25;;;;;;;5.37;3.33;;;25.00;87.10;;;;;;6278818;28;20218;-62
2022/05/26 09:21:31;;;;;;;5.50;3.90;;;25.00;87.10;;;;;;6278888;28;20243;-62
2022/05/26 09:24:37;;;;;;;5.27;3.90;;;24.90;88.20;;;;;;6279043;28;20657;-63
2022/05/26 09:27:50;;;;;;;5.17;3.53;;;24.80;87.40;;;;;;6278374;28;20551;-62
2022/05/26 09:30:53;;;;;;;5.80;3.50;;;24.70;89.00;;;;;;6278627;28;20677;-62
2022/05/26 09:34:04;;;;;;;3.97;3.50;;;24.50;88.10;;;;;;6278482;28;20247;-63
2022/05/26 09:37:08;;;;;;;3.83;3.40;;;24.40;89.00;;;;;;6278749;28;20234;-63
2022/05/26 09:40:16;;;;;;;5.73;4.00;;;24.20;89.70;;;;;;6278448;28;20688;-63
2022/05/26 09:43:25;;;;;;;5.27;3.70;;;23.90;90.00;;;;;;6278347;28;20551;-63
2022/05/26 09:46:29;;;;;;;2.83;2.57;;;23.30;90.80;;;;;;6278176;28;20243;-62
2022/05/26 09:49:39;;;;;;;4.33;2.90;;;23.00;91.40;;;;;;6278966;28;20239;-63
2022/05/26 09:52:45;;;;;;;6.03;3.20;;;22.70;91.80;;;;;;6278227;28;20228;-63
2022/05/26 09:55:49;;;;;;;4.40;3.30;;;22.50;92.30;;;;;;6279413;28;20246;-63
2022/05/26 09:58:53;;;;;;;3.00;2.57;;;22.30;92.60;;;;;;6278344;28;20695;-63
2022/05/26 10:02:01;;;;;;;5.83;3.40;;;22.40;93.00;;;;;;6278166;28;20241;-63
2022/05/26 10:05:12;;;;;;;3.60;3.30;;;22.40;93.70;;;;;;6264373;28;20568;-64
2022/05/26 10:08:22;;;;;;;4.40;3.53;;;22.50;94.10;;;;;;6277914;28;20235;-63
2022/05/26 10:11:49;;;;;;;4.10;3.50;;;22.30;94.30;;;;;;6277717;28;20678;-63
2022/05/26 10:15:07;;;;;;;4.53;3.40;;;22.40;94.20;;;;;;6263210;28;20569;-63
2022/05/26 10:18:28;;;;;;;6.57;3.40;;;22.50;95.00;;;;;;6277232;28;20212;-63
2022/05/26 10:21:53;;;;;;;4.20;3.80;;;22.60;95.20;;;;;;6277813;28;20679;-63
2022/05/26 10:25:18;;;;;;;4.27;3.60;;;22.50;95.50;;;;;;6278145;28;20551;-63
2022/05/26 10:28:35;;;;;;;3.87;3.60;;;22.60;95.80;;;;;;6272118;28;20549;-63
2022/05/26 10:31:52;;;;;;;6.63;4.33;;;22.50;96.10;;;;;;6277246;28;20319;-64
2022/05/26 10:35:25;;;;;;;5.40;3.60;;;22.30;96.50;;;;;;6276929;28;20314;-64
2022/05/26 10:38:53;;;;;;;4.13;3.10;;;22.50;96.50;;;;;;6273616;28;20680;-63
2022/05/26 10:42:00;;;;;;;3.40;3.03;;;22.80;96.60;;;;;;6276925;28;20235;-63
2022/05/26 10:45:11;;;;;;;4.70;2.77;;;22.90;95.40;;;;;;6276693;28;20774;-63
2022/05/26 10:48:21;;;;;;;3.50;2.63;;;22.90;95.60;;;;;;6276762;28;20253;-63
2022/05/26 10:51:30;;;;;;;3.30;3.00;;;23.10;94.80;;;;;;6277066;28;20554;-63
2022/05/26 10:54:43;;;;;;;3.20;2.90;;;23.10;94.50;;;;;;6277239;28;20231;-63
2022/05/26 10:57:52;;;;;;;3.13;2.83;;;23.20;94.90;;;;;;6276833;28;20238;-62
2022/05/26 11:01:00;;;;;;;2.90;2.70;;;23.40;94.50;;;;;;6277151;28;20232;-62
2022/05/26 11:04:17;;;;;;;3.20;2.90;;;23.40;94.80;;;;;;6276342;28;20673;-62
2022/05/26 11:07:27;;;;;;;3.27;2.97;;;23.70;94.10;;;;;;6267540;28;20227;-62
2022/05/26 11:10:37;;;;;;;3.77;2.60;;;23.80;93.50;;;;;;6276624;28;20231;-63
2022/05/26 11:13:49;;;;;;;3.23;2.93;;;23.90;93.70;;;;;;6276706;28;20231;-63
2022/05/26 11:20:20;;;;;;;5.87;3.07;;;23.80;93.50;;;;;;6267779;28;20223;-63
2022/05/26 11:23:25;;;;;;;3.07;2.87;;;23.60;93.90;;;;;;6276024;28;20236;-63
2022/05/26 11:26:41;;;;;;;2.50;2.30;;;23.20;94.60;;;;;;6276183;28;20231;-63
2022/05/26 11:29:46;;;;;;;2.87;2.67;;;23.20;94.80;;;;;;6275432;28;20247;-63
2022/05/26 11:36:17;;;;;;;2.43;1.90;;;23.20;94.00;;;;;;6275863;28;20216;-63
2022/05/26 11:39:25;;;;;;;3.20;2.40;;;23.40;93.60;;;;;;6276159;28;20199;-63
2022/05/26 11:42:33;;;;;;;2.80;1.93;;;23.70;92.50;;;;;;6276705;28;20330;-62
2022/05/26 11:45:48;;;;;;;2.57;2.23;;;24.10;92.20;;;;;;6276254;28;20223;-63
2022/05/26 11:48:52;;;;;;;2.40;1.83;;;24.40;91.40;;;;;;6275990;28;20224;-62
2022/05/26 11:51:55;;;;;;;2.20;2.00;;;24.80;90.80;;;;;;6275140;28;20227;-62
2022/05/26 11:55:11;;;;;;;2.80;2.40;;;25.20;91.20;;;;;;6275625;28;20350;-62
2022/05/26 11:58:27;;;;;;;2.50;1.97;;;25.30;90.30;;;;;;6275202;28;20223;-62
2022/05/26 12:01:36;;;;;;;2.60;2.40;;;25.40;89.70;;;;;;6275224;28;20228;-62
2022/05/26 12:04:41;;;;;;;1.80;1.70;;;25.30;90.30;;;;;;6275490;28;20239;-62
2022/05/26 12:07:46;;;;;;;2.93;2.20;;;25.50;85.90;;;;;;6275396;28;20250;-62
2022/05/26 12:10:53;;;;;;;2.20;2.00;;;25.70;84.70;;;;;;6270479;28;20246;-62
2022/05/26 12:14:05;;;;;;;2.23;2.03;;;25.70;83.50;;;;;;6275228;28;20227;-62
2022/05/26 12:17:31;;;;;;;1.83;1.73;;;25.80;82.10;;;;;;6274964;28;20227;-62
2022/05/26 12:20:42;;;;;;;1.70;1.60;;;25.50;81.80;;;;;;6275209;28;20242;-62
2022/05/26 12:23:46;;;;;;;1.80;1.70;;;25.10;81.20;;;;;;6275239;28;20243;-62
2022/05/26 12:26:51;;;;;;;1.70;1.60;;;25.10;83.10;;;;;;6275143;28;20235;-62
2022/05/26 12:30:06;;;;;;;1.50;1.37;;;25.30;83.60;;;;;;6274915;28;20223;-62
2022/05/26 12:33:42;;;;;;;1.50;1.30;;;25.60;79.60;;;;;;6274656;28;20676;-62
2022/05/26 12:36:56;;;;;;;2.33;1.30;;;25.80;77.90;;;;;;6266455;28;20264;-62
2022/05/26 12:40:29;;;;;;;1.40;1.30;;;26.00;74.60;;;;;;6275199;28;20236;-62
2022/05/26 12:43:53;;;;;;;1.63;1.10;;;26.20;74.00;;;;;;6280580;28;20238;-62
2022/05/26 12:47:09;;;;;;;1.50;1.40;;;26.50;71.70;;;;;;6280139;28;20652;-62
2022/05/26 12:50:17;;;;;;;1.93;1.30;;;26.30;68.80;;;;;;6279555;28;20566;-62
2022/05/26 12:53:27;;;;;;;2.10;1.77;;;26.40;69.90;;;;;;6279645;28;20584;-62
2022/05/26 12:56:40;;;;;;;4.40;2.17;;;26.50;70.70;;;;;;6279873;28;20254;-62
2022/05/26 12:59:43;;;;;;;2.37;2.17;;;26.10;74.50;;;;;;6279236;28;20235;-62
2022/05/26 13:02:51;;;;;;;2.50;2.30;;;25.80;74.30;;;;;;6279397;28;20239;-62
2022/05/26 13:05:59;;;;;;;2.23;1.47;;;25.70;74.60;;;;;;6279891;28;20227;-62
2022/05/26 13:09:09;;;;;;;1.60;1.50;;;25.80;72.00;;;;;;6279331;28;20228;-62
2022/05/26 13:12:20;;;;;;;2.37;1.30;;;25.80;70.40;;;;;;6274519;28;20227;-62
2022/05/26 13:15:25;;;;;;;2.37;1.50;;;26.00;71.30;;;;;;6279425;28;20219;-62
2022/05/26 13:18:30;;;;;;;1.53;1.43;;;26.00;71.80;;;;;;6279330;28;20652;-62
2022/05/26 13:21:33;;;;;;;2.17;1.20;;;25.70;70.60;;;;;;6279227;28;20814;-62
2022/05/26 13:24:36;;;;;;;1.50;1.27;;;25.30;71.30;;;;;;6278942;28;20681;-62
2022/05/26 13:27:46;;;;;;;2.10;1.47;;;25.00;73.00;;;;;;6279688;28;20227;-62
2022/05/26 13:34:16;;;;;;;1.43;1.33;;;24.70;72.50;;;;;;6278470;28;20235;-62
2022/05/26 13:37:24;;;;;;;1.57;1.20;;;24.40;71.50;;;;;;6278659;28;20251;-62
2022/05/26 13:40:29;;;;;;;1.50;1.40;;;24.20;71.90;;;;;;6278386;28;20238;-62
2022/05/26 13:43:36;;;;;;;3.83;3.60;;;24.20;73.50;;;;;;6279080;28;20239;-61
2022/05/26 13:46:43;;;;;;;2.50;1.37;;;24.20;74.50;;;;;;6278973;28;20240;-61
2022/05/26 13:49:59;;;;;;;1.80;1.60;;;24.10;76.40;;;;;;6279084;28;20228;-61
2022/05/26 13:53:04;;;;;;;1.70;1.60;;;24.20;77.70;;;;;;6277442;28;20240;-62
2022/05/26 13:56:08;;;;;;;1.40;1.30;;;24.20;76.40;;;;;;6277988;28;20549;-61
2022/05/26 13:59:14;;;;;;;1.80;1.70;;;24.30;77.30;;;;;;6278079;28;20235;-61
2022/05/26 14:02:24;;;;;;;2.13;1.50;;;24.40;77.50;;;;;;6277654;28;20690;-62
2022/05/26 14:05:30;;;;;;;1.90;1.80;;;24.20;77.90;;;;;;6277623;28;20235;-62
2022/05/26 14:08:58;;;;;;;1.67;1.57;;;24.30;78.40;;;;;;6277751;28;20689;-61
2022/05/26 14:12:04;;;;;;;2.37;2.17;;;24.10;77.70;;;;;;6277345;28;20720;-62
2022/05/26 14:15:09;;;;;;;2.33;1.87;;;24.20;76.40;;;;;;6277405;28;20227;-61
2022/05/26 14:18:34;;;;;;;1.90;1.80;;;24.40;75.80;;;;;;6272933;28;20220;-61
2022/05/26 14:21:39;;;;;;;2.40;1.70;;;24.50;77.60;;;;;;6278177;28;20225;-61
2022/05/26 14:24:49;;;;;;;2.07;1.83;;;24.70;77.20;;;;;;6277589;28;20235;-61
2022/05/26 14:27:54;;;;;;;1.90;1.80;;;24.90;76.40;;;;;;6277819;28;20220;-62
2022/05/26 14:30:58;;;;;;;2.00;1.90;;;24.90;75.70;;;;;;6277432;28;20223;-62
2022/05/26 14:34:04;;;;;;;1.77;1.67;;;25.00;76.10;;;;;;6277295;28;20228;-62
2022/05/26 14:37:09;;;;;;;1.97;1.87;;;25.10;75.50;;;;;;6277251;28;20672;-62
2022/05/26 14:40:12;;;;;;;2.10;2.00;;;25.00;76.10;;;;;;6277593;28;20228;-62
2022/05/26 14:43:18;;;;;;;3.83;1.60;;;25.20;76.30;;;;;;6276911;28;20243;-62
2022/05/26 14:46:21;;;;;;;2.70;2.50;;;25.20;76.40;;;;;;6277322;28;20223;-61
2022/05/26 14:49:24;;;;;;;2.17;2.00;;;25.00;77.30;;;;;;6276730;28;20238;-61
2022/05/26 14:52:31;;;;;;;2.40;1.50;;;25.10;77.80;;;;;;6276948;28;20310;-62
2022/05/26 14:55:36;;;;;;;1.97;1.87;;;25.10;76.40;;;;;;6277154;28;20238;-62
2022/05/26 14:58:39;;;;;;;1.87;1.70;;;24.80;77.60;;;;;;6277621;28;20228;-62
2022/05/26 15:01:43;;;;;;;2.13;1.93;;;24.60;78.10;;;;;;6276886;28;20232;-62
2022/05/26 15:04:47;;;;;;;2.53;2.00;;;24.60;78.20;;;;;;6276678;28;20238;-62
2022/05/26 15:07:52;;;;;;;2.90;2.47;;;24.50;78.80;;;;;;6277346;28;20235;-62
2022/05/26 15:10:55;;;;;;;2.10;1.90;;;24.40;79.60;;;;;;6277467;28;20228;-61
2022/05/26 15:13:59;;;;;;;2.83;2.63;;;24.40;79.90;;;;;;6277590;28;20324;-61
2022/05/26 15:17:05;;;;;;;2.40;2.20;;;24.30;80.70;;;;;;6276802;28;20239;-61
2022/05/26 15:20:12;;;;;;;3.57;3.27;;;24.50;81.00;;;;;;6272158;28;20676;-61
2022/05/26 15:23:17;;;;;;;2.50;2.40;;;24.40;81.00;;;;;;6276498;28;20570;-62
2022/05/26 15:26:26;;;;;;;2.73;2.53;;;24.30;82.10;;;;;;6276386;28;20224;-61
2022/05/26 15:29:30;;;;;;;2.83;2.53;;;24.10;82.30;;;;;;6276210;28;20232;-61
2022/05/26 15:32:35;;;;;;;2.70;2.20;;;24.10;82.80;;;;;;6276390;28;20232;-61
2022/05/26 15:35:38;;;;;;;4.10;2.30;;;24.20;82.90;;;;;;6276333;28;20240;-61
2022/05/26 15:38:45;;;;;;;3.37;3.07;;;24.30;82.60;;;;;;6276935;28;20232;-61
2022/05/26 15:41:49;;;;;;;3.00;2.60;;;24.40;82.00;;;;;;6275665;28;20551;-62
2022/05/26 15:44:52;;;;;;;4.60;2.40;;;24.50;81.80;;;;;;6276186;28;20243;-61
2022/05/26 15:47:59;;;;;;;2.60;2.43;;;24.60;81.90;;;;;;6275934;28;20584;-61
2022/05/26 15:51:04;;;;;;;2.87;2.67;;;24.60;83.20;;;;;;6276201;28;20290;-62
2022/05/26 15:54:10;;;;;;;4.63;3.30;;;24.60;82.80;;;;;;6275623;28;20242;-62
2022/05/26 15:57:15;;;;;;;3.50;3.20;;;24.80;83.20;;;;;;6275637;28;20657;-62
2022/05/26 16:00:21;;;;;;;4.27;2.97;;;24.90;83.00;;;;;;6275822;28;20214;-62
2022/05/26 16:03:25;;;;;;;2.90;2.70;;;24.90;82.90;;;;;;6276068;28;20228;-62
2022/05/26 16:06:29;;;;;;;4.17;3.13;;;24.90;84.00;;;;;;6275554;28;20232;-62
2022/05/26 16:09:33;;;;;;;3.27;2.97;;;24.80;83.80;;;;;;6275779;28;20655;-60
2022/05/26 16:12:38;;;;;;;5.37;3.23;;;24.70;84.90;;;;;;6275530;28;20235;-61
2022/05/26 16:15:45;;;;;;;3.40;3.10;;;24.60;85.40;;;;;;6274812;28;20232;-61
2022/05/26 16:18:48;;;;;;;3.83;3.40;;;24.50;85.90;;;;;;6275724;28;20235;-61
2022/05/26 16:21:51;;;;;;;3.20;3.00;;;24.50;86.00;;;;;;6275262;28;20238;-62
2022/05/26 16:24:56;;;;;;;2.73;2.57;;;24.50;85.70;;;;;;6275493;28;20230;-61
2022/05/26 16:27:59;;;;;;;3.20;3.00;;;24.60;86.40;;;;;;6275352;28;20230;-61
2022/05/26 16:31:02;;;;;;;3.83;3.43;;;24.60;86.10;;;;;;6274795;28;20679;-61
2022/05/26 16:34:05;;;;;;;3.10;2.87;;;24.60;85.70;;;;;;6274908;28;20227;-61
2022/05/26 16:37:10;;;;;;;3.37;3.03;;;24.60;86.10;;;;;;6274990;28;20224;-61
2022/05/26 16:40:15;;;;;;;2.80;2.60;;;24.60;86.10;;;;;;6274770;28;20228;-61
2022/05/26 16:43:18;;;;;;;3.07;2.87;;;24.40;85.60;;;;;;6275115;28;20249;-61
2022/05/26 16:46:21;;;;;;;3.60;3.30;;;24.30;85.50;;;;;;6274980;28;20220;-61
2022/05/26 16:49:24;;;;;;;4.10;3.00;;;24.30;85.10;;;;;;6274529;28;20231;-61